sensor_id;sensor_type;location;lat;lon;timestamp;temperature;humidity
59067;DHT22;44854;50.838;4.438;2022-11-09T06:20:52;13.20;99.90
59067;DHT22;44854;50.838;4.438;2022-11-09T06:23:18;13.10;99.90
59067;DHT22;44854;50.838;4.438;2022-11-09T06:25:44;13.10;99.90
59067;DHT22;44854;50.838;4.438;2022-11-09T06:28:10;13.10;99.90
59067;DHT22;44854;50.838;4.438;2022-11-09T06:30:36;13.10;99.90
59067;DHT22;44854;50.838;4.438;2022-11-09T06:33:01;13.10;99.90
59067;DHT22;44854;50.838;4.438;2022-11-09T06:35:27;13.10;99.90
59067;DHT22;44854;50.838;4.438;2022-11-09T06:37:59;13.00;99.90
59067;DHT22;44854;50.838;4.438;2022-11-09T06:40:25;13.00;99.90
59067;DHT22;44854;50.838;4.438;2022-11-09T06:42:50;13.00;99.90
59067;DHT22;44854;50.838;4.438;2022-11-09T06:45:16;13.00;99.90
59067;DHT22;44854;50.838;4.438;2022-11-09T06:47:42;13.10;99.90
59067;DHT22;44854;50.838;4.438;2022-11-09T06:50:07;13.20;99.90
59067;DHT22;44854;50.838;4.438;2022-11-09T06:52:33;13.20;99.90
59067;DHT22;44854;50.838;4.438;2022-11-09T06:54:59;13.20;99.90
59067;DHT22;44854;50.838;4.438;2022-11-09T06:57:27;13.20;99.90
59067;DHT22;44854;50.838;4.438;2022-11-09T06:59:53;13.20;99.90
59067;DHT22;44854;50.838;4.438;2022-11-09T07:02:18;13.20;99.90
59067;DHT22;44854;50.838;4.438;2022-11-09T07:04:44;13.20;99.90
59067;DHT22;44854;50.838;4.438;2022-11-09T07:07:10;13.20;99.90
59067;DHT22;44854;50.838;4.438;2022-11-09T07:09:36;13.10;99.90
59067;DHT22;44854;50.838;4.438;2022-11-09T07:12:01;13.20;99.90
59067;DHT22;44854;50.838;4.438;2022-11-09T07:14:28;13.10;99.90
59067;DHT22;44854;50.838;4.438;2022-11-09T07:16:53;13.10;99.90
59067;DHT22;44854;50.838;4.438;2022-11-09T07:19:19;13.20;99.90
59067;DHT22;44854;50.838;4.438;2022-11-09T07:21:45;13.20;99.90
59067;DHT22;44854;50.838;4.438;2022-11-09T07:24:10;13.20;99.90
59067;DHT22;44854;50.838;4.438;2022-11-09T07:26:36;13.20;99.90
59067;DHT22;44854;50.838;4.438;2022-11-09T07:29:01;13.20;99.90
59067;DHT22;44854;50.838;4.438;2022-11-09T07:31:27;13.50;99.90
59067;DHT22;44854;50.838;4.438;2022-11-09T07:33:53;13.50;99.90
59067;DHT22;44854;50.838;4.438;2022-11-09T07:36:19;13.50;99.90
59067;DHT22;44854;50.838;4.438;2022-11-09T07:38:45;13.40;99.90
59067;DHT22;44854;50.838;4.438;2022-11-09T07:41:11;13.40;99.90
59067;DHT22;44854;50.838;4.438;2022-11-09T07:43:37;13.40;99.90
59067;DHT22;44854;50.838;4.438;2022-11-09T07:46:03;13.20;99.90
59067;DHT22;44854;50.838;4.438;2022-11-09T07:48:29;13.20;99.90
59067;DHT22;44854;50.838;4.438;2022-11-09T07:50:54;13.20;99.90
59067;DHT22;44854;50.838;4.438;2022-11-09T07:53:21;13.20;99.90
59067;DHT22;44854;50.838;4.438;2022-11-09T07:55:54;13.20;99.90
59067;DHT22;44854;50.838;4.438;2022-11-09T07:58:20;13.30;99.90
59067;DHT22;44854;50.838;4.438;2022-11-09T08:00:45;13.40;99.90
59067;DHT22;44854;50.838;4.438;2022-11-09T08:03:11;13.50;99.90
59067;DHT22;44854;50.838;4.438;2022-11-09T08:05:37;13.50;99.90
59067;DHT22;44854;50.838;4.438;2022-11-09T08:08:04;13.50;99.90
59067;DHT22;44854;50.838;4.438;2022-11-09T08:10:30;13.50;99.90
59067;DHT22;44854;50.838;4.438;2022-11-09T08:12:58;13.50;99.90
59067;DHT22;44854;50.838;4.438;2022-11-09T08:15:23;13.50;99.90
59067;DHT22;44854;50.838;4.438;2022-11-09T08:17:49;13.50;99.90
59067;DHT22;44854;50.838;4.438;2022-11-09T08:20:15;13.60;99.90
59067;DHT22;44854;50.838;4.438;2022-11-09T08:22:44;13.60;99.90
59067;DHT22;44854;50.838;4.438;2022-11-09T08:25:10;13.60;99.90
59067;DHT22;44854;50.838;4.438;2022-11-09T08:27:36;13.40;99.90
59067;DHT22;44854;50.838;4.438;2022-11-09T08:30:11;13.40;99.90
59067;DHT22;44854;50.838;4.438;2022-11-09T08:32:38;13.50;99.90
59067;DHT22;44854;50.838;4.438;2022-11-09T08:35:04;13.50;99.90
59067;DHT22;44854;50.838;4.438;2022-11-09T08:37:30;13.60;99.90
59067;DHT22;44854;50.838;4.438;2022-11-09T08:39:57;13.60;99.90
59067;DHT22;44854;50.838;4.438;2022-11-09T08:42:23;13.60;99.90
59067;DHT22;44854;50.838;4.438;2022-11-09T08:44:48;13.60;99.90
59067;DHT22;44854;50.838;4.438;2022-11-09T08:47:14;13.70;99.90
59067;DHT22;44854;50.838;4.438;2022-11-09T08:49:39;13.80;99.90
59067;DHT22;44854;50.838;4.438;2022-11-09T08:52:08;13.80;99.90
59067;DHT22;44854;50.838;4.438;2022-11-09T08:54:34;13.80;99.90
59067;DHT22;44854;50.838;4.438;2022-11-09T08:57:00;13.80;99.90
59067;DHT22;44854;50.838;4.438;2022-11-09T08:59:25;13.80;99.90
59067;DHT22;44854;50.838;4.438;2022-11-09T09:01:51;13.80;99.90
59067;DHT22;44854;50.838;4.438;2022-11-09T09:04:16;13.90;99.90
59067;DHT22;44854;50.838;4.438;2022-11-09T09:06:42;13.90;99.90
59067;DHT22;44854;50.838;4.438;2022-11-09T09:09:08;13.80;99.90
59067;DHT22;44854;50.838;4.438;2022-11-09T09:11:33;13.70;99.90
59067;DHT22;44854;50.838;4.438;2022-11-09T09:13:59;13.80;99.90
59067;DHT22;44854;50.838;4.438;2022-11-09T09:16:24;13.80;99.90
59067;DHT22;44854;50.838;4.438;2022-11-09T09:18:50;13.80;99.90
59067;DHT22;44854;50.838;4.438;2022-11-09T09:21:15;13.90;99.90
59067;DHT22;44854;50.838;4.438;2022-11-09T09:23:41;13.90;99.90
59067;DHT22;44854;50.838;4.438;2022-11-09T09:26:06;13.80;99.90
59067;DHT22;44854;50.838;4.438;2022-11-09T09:28:32;13.90;99.90
59067;DHT22;44854;50.838;4.438;2022-11-09T09:30:58;14.00;99.90
59067;DHT22;44854;50.838;4.438;2022-11-09T09:33:24;14.00;99.90
59067;DHT22;44854;50.838;4.438;2022-11-09T09:35:50;14.00;99.90
59067;DHT22;44854;50.838;4.438;2022-11-09T09:38:16;14.10;99.90
59067;DHT22;44854;50.838;4.438;2022-11-09T09:40:52;14.10;99.90
59067;DHT22;44854;50.838;4.438;2022-11-09T09:43:23;14.10;99.90
59067;DHT22;44854;50.838;4.438;2022-11-09T09:45:50;14.20;99.90
59067;DHT22;44854;50.838;4.438;2022-11-09T09:48:24;14.20;99.90
59067;DHT22;44854;50.838;4.438;2022-11-09T09:50:51;14.20;99.90
59067;DHT22;44854;50.838;4.438;2022-11-09T09:53:34;14.10;99.90
59067;DHT22;44854;50.838;4.438;2022-11-09T09:58:30;14.20;99.90
59067;DHT22;44854;50.838;4.438;2022-11-09T10:00:59;14.20;99.90
59067;DHT22;44854;50.838;4.438;2022-11-09T10:03:26;14.20;99.90
59067;DHT22;44854;50.838;4.438;2022-11-09T10:31:50;14.60;99.90
59067;DHT22;44854;50.838;4.438;2022-11-09T10:34:16;14.50;99.90
59067;DHT22;44854;50.838;4.438;2022-11-09T10:36:51;14.50;99.90
59067;DHT22;44854;50.838;4.438;2022-11-09T10:39:18;14.40;99.90
59067;DHT22;44854;50.838;4.438;2022-11-09T10:41:45;14.40;99.90
59067;DHT22;44854;50.838;4.438;2022-11-09T10:44:12;14.50;99.90
59067;DHT22;44854;50.838;4.438;2022-11-09T10:49:39;14.60;99.90
59067;DHT22;44854;50.838;4.438;2022-11-09T10:52:05;14.60;99.90
59067;DHT22;44854;50.838;4.438;2022-11-09T10:54:40;14.70;99.90
59067;DHT22;44854;50.838;4.438;2022-11-09T10:57:10;14.70;99.90
59067;DHT22;44854;50.838;4.438;2022-11-09T10:59:55;14.70;99.90
59067;DHT22;44854;50.838;4.438;2022-11-09T11:07:30;14.50;99.90
59067;DHT22;44854;50.838;4.438;2022-11-09T11:09:56;14.60;99.90
59067;DHT22;44854;50.838;4.438;2022-11-09T11:12:23;14.60;99.90
59067;DHT22;44854;50.838;4.438;2022-11-09T11:14:48;14.70;99.90
59067;DHT22;44854;50.838;4.438;2022-11-09T11:17:26;14.90;99.90
59067;DHT22;44854;50.838;4.438;2022-11-09T11:19:53;15.00;99.90
59067;DHT22;44854;50.838;4.438;2022-11-09T11:22:20;14.90;99.90
59067;DHT22;44854;50.838;4.438;2022-11-09T11:29:51;15.30;99.90
59067;DHT22;44854;50.838;4.438;2022-11-09T11:32:19;15.30;99.90
59067;DHT22;44854;50.838;4.438;2022-11-09T11:34:45;15.30;99.90
59067;DHT22;44854;50.838;4.438;2022-11-09T11:37:41;14.90;99.90
59067;DHT22;44854;50.838;4.438;2022-11-09T11:42:52;14.50;99.90
59067;DHT22;44854;50.838;4.438;2022-11-09T11:45:35;14.60;99.90
59067;DHT22;44854;50.838;4.438;2022-11-09T11:53:22;14.50;99.90
59067;DHT22;44854;50.838;4.438;2022-11-09T11:55:54;14.40;99.90
59067;DHT22;44854;50.838;4.438;2022-11-09T11:58:27;14.50;99.90
59067;DHT22;44854;50.838;4.438;2022-11-09T12:03:45;14.80;99.90
59067;DHT22;44854;50.838;4.438;2022-11-09T12:06:32;14.80;99.90
59067;DHT22;44854;50.838;4.438;2022-11-09T12:11:49;14.80;99.90
59067;DHT22;44854;50.838;4.438;2022-11-09T12:14:23;14.70;99.90
59067;DHT22;44854;50.838;4.438;2022-11-09T12:16:59;14.60;99.90
59067;DHT22;44854;50.838;4.438;2022-11-09T12:22:13;14.50;99.90
59067;DHT22;44854;50.838;4.438;2022-11-09T12:34:32;13.50;99.90
59067;DHT22;44854;50.838;4.438;2022-11-09T12:37:19;13.20;99.90
59067;DHT22;44854;50.838;4.438;2022-11-09T12:39:49;13.10;99.90
59067;DHT22;44854;50.838;4.438;2022-11-09T12:42:36;13.20;99.90
59067;DHT22;44854;50.838;4.438;2022-11-09T12:45:02;13.30;99.90
59067;DHT22;44854;50.838;4.438;2022-11-09T12:47:42;13.50;99.90
59067;DHT22;44854;50.838;4.438;2022-11-09T12:50:15;13.50;99.90
59067;DHT22;44854;50.838;4.438;2022-11-09T12:52:41;13.50;99.90
59067;DHT22;44854;50.838;4.438;2022-11-09T12:55:06;13.70;99.90
59067;DHT22;44854;50.838;4.438;2022-11-09T12:57:37;13.70;99.90
59067;DHT22;44854;50.838;4.438;2022-11-09T13:00:02;13.60;99.90
59067;DHT22;44854;50.838;4.438;2022-11-09T13:02:29;13.70;99.90
59067;DHT22;44854;50.838;4.438;2022-11-09T13:04:57;13.70;99.90
59067;DHT22;44854;50.838;4.438;2022-11-09T13:07:41;13.70;99.90
59067;DHT22;44854;50.838;4.438;2022-11-09T13:10:20;13.70;99.90
59067;DHT22;44854;50.838;4.438;2022-11-09T13:12:47;13.70;99.90
59067;DHT22;44854;50.838;4.438;2022-11-09T13:15:26;13.90;99.90
59067;DHT22;44854;50.838;4.438;2022-11-09T13:17:54;14.10;99.90
59067;DHT22;44854;50.838;4.438;2022-11-09T13:20:37;14.10;99.90
59067;DHT22;44854;50.838;4.438;2022-11-09T13:23:04;14.30;99.90
59067;DHT22;44854;50.838;4.438;2022-11-09T13:25:49;14.30;99.90
59067;DHT22;44854;50.838;4.438;2022-11-09T13:31:03;14.40;99.90
59067;DHT22;44854;50.838;4.438;2022-11-09T13:33:32;14.50;99.90
59067;DHT22;44854;50.838;4.438;2022-11-09T13:38:32;14.50;99.90
59067;DHT22;44854;50.838;4.438;2022-11-09T13:41:02;14.80;99.90
59067;DHT22;44854;50.838;4.438;2022-11-09T13:43:31;14.70;99.90
59067;DHT22;44854;50.838;4.438;2022-11-09T13:45:58;14.60;99.90
59067;DHT22;44854;50.838;4.438;2022-11-09T13:48:43;14.60;99.90
59067;DHT22;44854;50.838;4.438;2022-11-09T13:51:19;14.60;99.90
59067;DHT22;44854;50.838;4.438;2022-11-09T13:53:53;14.60;99.90
59067;DHT22;44854;50.838;4.438;2022-11-09T13:58:58;14.60;99.90
59067;DHT22;44854;50.838;4.438;2022-11-09T14:01:31;14.50;99.90
59067;DHT22;44854;50.838;4.438;2022-11-09T14:03:58;14.50;99.90
59067;DHT22;44854;50.838;4.438;2022-11-09T14:06:28;14.50;99.90
59067;DHT22;44854;50.838;4.438;2022-11-09T14:08:54;14.40;99.90
59067;DHT22;44854;50.838;4.438;2022-11-09T14:11:35;14.40;99.90
59067;DHT22;44854;50.838;4.438;2022-11-09T14:21:45;14.20;99.90
59067;DHT22;44854;50.838;4.438;2022-11-09T14:24:15;14.20;99.90
59067;DHT22;44854;50.838;4.438;2022-11-09T14:29:25;14.20;99.90
59067;DHT22;44854;50.838;4.438;2022-11-09T14:31:51;14.00;99.90
59067;DHT22;44854;50.838;4.438;2022-11-09T14:34:17;13.80;99.90
59067;DHT22;44854;50.838;4.438;2022-11-09T14:36:42;13.90;99.90
59067;DHT22;44854;50.838;4.438;2022-11-09T14:39:29;13.80;99.90
59067;DHT22;44854;50.838;4.438;2022-11-09T14:41:55;13.80;99.90
59067;DHT22;44854;50.838;4.438;2022-11-09T14:44:28;13.80;99.90
59067;DHT22;44854;50.838;4.438;2022-11-09T14:46:57;13.70;99.90
59067;DHT22;44854;50.838;4.438;2022-11-09T14:49:25;13.70;99.90
59067;DHT22;44854;50.838;4.438;2022-11-09T14:51:51;13.80;99.90
59067;DHT22;44854;50.838;4.438;2022-11-09T14:54:18;13.90;99.90
59067;DHT22;44854;50.838;4.438;2022-11-09T14:56:46;13.80;99.90
59067;DHT22;44854;50.838;4.438;2022-11-09T14:59:13;13.80;99.90
59067;DHT22;44854;50.838;4.438;2022-11-09T15:01:39;13.90;99.90
59067;DHT22;44854;50.838;4.438;2022-11-09T15:04:19;13.80;99.90
59067;DHT22;44854;50.838;4.438;2022-11-09T15:06:47;13.80;99.90
59067;DHT22;44854;50.838;4.438;2022-11-09T15:09:14;13.80;99.90
59067;DHT22;44854;50.838;4.438;2022-11-09T15:11:42;13.80;99.90
59067;DHT22;44854;50.838;4.438;2022-11-09T15:16:46;13.80;99.90
59067;DHT22;44854;50.838;4.438;2022-11-09T15:19:23;13.80;99.90
59067;DHT22;44854;50.838;4.438;2022-11-09T15:21:54;13.80;99.90
59067;DHT22;44854;50.838;4.438;2022-11-09T15:24:20;13.80;99.90
59067;DHT22;44854;50.838;4.438;2022-11-09T15:26:47;13.80;99.90
59067;DHT22;44854;50.838;4.438;2022-11-09T15:32:00;13.90;99.90
59067;DHT22;44854;50.838;4.438;2022-11-09T15:34:28;13.80;99.90
59067;DHT22;44854;50.838;4.438;2022-11-09T15:36:56;13.80;99.90
59067;DHT22;44854;50.838;4.438;2022-11-09T15:39:22;13.80;99.90
59067;DHT22;44854;50.838;4.438;2022-11-09T15:41:48;13.80;99.90
59067;DHT22;44854;50.838;4.438;2022-11-09T15:44:13;13.80;99.90
59067;DHT22;44854;50.838;4.438;2022-11-09T15:46:43;13.90;99.90
59067;DHT22;44854;50.838;4.438;2022-11-09T15:51:38;13.80;99.90
59067;DHT22;44854;50.838;4.438;2022-11-09T15:54:04;13.70;99.90
59067;DHT22;44854;50.838;4.438;2022-11-09T15:56:29;13.70;99.90
59067;DHT22;44854;50.838;4.438;2022-11-09T15:58:55;13.70;99.90
59067;DHT22;44854;50.838;4.438;2022-11-09T16:01:21;13.70;99.90
59067;DHT22;44854;50.838;4.438;2022-11-09T16:03:46;13.70;99.90
59067;DHT22;44854;50.838;4.438;2022-11-09T16:06:14;13.70;99.90
59067;DHT22;44854;50.838;4.438;2022-11-09T16:08:41;13.70;99.90
59067;DHT22;44854;50.838;4.438;2022-11-09T16:11:07;13.60;99.90
59067;DHT22;44854;50.838;4.438;2022-11-09T16:13:34;13.70;99.90
59067;DHT22;44854;50.838;4.438;2022-11-09T16:16:01;13.70;99.90
59067;DHT22;44854;50.838;4.438;2022-11-09T16:18:28;13.60;99.90
59067;DHT22;44854;50.838;4.438;2022-11-09T16:20:53;13.50;99.90
59067;DHT22;44854;50.838;4.438;2022-11-09T16:23:19;13.60;99.90
59067;DHT22;44854;50.838;4.438;2022-11-09T16:25:44;13.40;99.90
59067;DHT22;44854;50.838;4.438;2022-11-09T16:28:10;13.40;99.90
59067;DHT22;44854;50.838;4.438;2022-11-09T16:30:36;13.30;99.90
59067;DHT22;44854;50.838;4.438;2022-11-09T16:33:01;13.30;99.90
59067;DHT22;44854;50.838;4.438;2022-11-09T16:35:27;13.30;99.90
59067;DHT22;44854;50.838;4.438;2022-11-09T16:37:52;13.20;99.90
59067;DHT22;44854;50.838;4.438;2022-11-09T16:40:20;13.20;99.90
59067;DHT22;44854;50.838;4.438;2022-11-09T16:42:46;13.20;99.90
59067;DHT22;44854;50.838;4.438;2022-11-09T16:45:13;13.20;99.90
59067;DHT22;44854;50.838;4.438;2022-11-09T16:47:41;13.10;99.90
59067;DHT22;44854;50.838;4.438;2022-11-09T16:50:08;13.10;99.90
59067;DHT22;44854;50.838;4.438;2022-11-09T16:52:33;13.10;99.90
59067;DHT22;44854;50.838;4.438;2022-11-09T16:54:59;13.20;99.90
59067;DHT22;44854;50.838;4.438;2022-11-09T16:57:24;13.10;99.90
59067;DHT22;44854;50.838;4.438;2022-11-09T16:59:50;13.30;99.90
59067;DHT22;44854;50.838;4.438;2022-11-09T17:02:16;13.30;99.90
59067;DHT22;44854;50.838;4.438;2022-11-09T17:04:41;13.30;99.90
59067;DHT22;44854;50.838;4.438;2022-11-09T17:07:10;13.40;99.90
59067;DHT22;44854;50.838;4.438;2022-11-09T17:09:35;13.20;99.90
59067;DHT22;44854;50.838;4.438;2022-11-09T17:12:02;13.30;99.90
59067;DHT22;44854;50.838;4.438;2022-11-09T17:14:27;13.40;99.90
59067;DHT22;44854;50.838;4.438;2022-11-09T17:16:53;13.20;99.90
59067;DHT22;44854;50.838;4.438;2022-11-09T17:19:19;13.10;99.90
59067;DHT22;44854;50.838;4.438;2022-11-09T17:21:44;13.00;99.90
59067;DHT22;44854;50.838;4.438;2022-11-09T17:24:10;13.00;99.90
59067;DHT22;44854;50.838;4.438;2022-11-09T17:26:36;12.90;99.90
59067;DHT22;44854;50.838;4.438;2022-11-09T17:29:02;13.00;99.90
59067;DHT22;44854;50.838;4.438;2022-11-09T17:31:28;12.90;99.90
59067;DHT22;44854;50.838;4.438;2022-11-09T17:33:54;12.90;99.90
59067;DHT22;44854;50.838;4.438;2022-11-09T17:36:20;12.90;99.90
59067;DHT22;44854;50.838;4.438;2022-11-09T17:38:46;12.80;99.90
59067;DHT22;44854;50.838;4.438;2022-11-09T17:41:18;12.80;99.90
59067;DHT22;44854;50.838;4.438;2022-11-09T17:43:45;12.90;99.90
59067;DHT22;44854;50.838;4.438;2022-11-09T17:46:12;12.90;99.90
59067;DHT22;44854;50.838;4.438;2022-11-09T17:48:39;12.90;99.90
59067;DHT22;44854;50.838;4.438;2022-11-09T17:51:06;12.90;99.90
59067;DHT22;44854;50.838;4.438;2022-11-09T17:53:31;12.90;99.90
59067;DHT22;44854;50.838;4.438;2022-11-09T17:55:57;12.80;99.90
59067;DHT22;44854;50.838;4.438;2022-11-09T17:58:23;12.80;99.90
59067;DHT22;44854;50.838;4.438;2022-11-09T18:00:49;12.80;99.90
59067;DHT22;44854;50.838;4.438;2022-11-09T18:03:15;12.80;99.90
59067;DHT22;44854;50.838;4.438;2022-11-09T18:05:41;12.70;99.90
59067;DHT22;44854;50.838;4.438;2022-11-09T18:08:07;12.80;99.90
59067;DHT22;44854;50.838;4.438;2022-11-09T18:10:40;12.80;99.90
59067;DHT22;44854;50.838;4.438;2022-11-09T18:13:06;12.80;99.90
59067;DHT22;44854;50.838;4.438;2022-11-09T18:15:32;12.80;99.90
59067;DHT22;44854;50.838;4.438;2022-11-09T18:17:57;12.90;99.90
59067;DHT22;44854;50.838;4.438;2022-11-09T18:20:23;12.80;99.90
59067;DHT22;44854;50.838;4.438;2022-11-09T18:22:49;12.90;99.90
59067;DHT22;44854;50.838;4.438;2022-11-09T18:25:15;12.70;99.90
59067;DHT22;44854;50.838;4.438;2022-11-09T18:27:41;12.70;99.90
59067;DHT22;44854;50.838;4.438;2022-11-09T18:30:07;12.70;99.90
59067;DHT22;44854;50.838;4.438;2022-11-09T18:32:32;12.70;99.90
59067;DHT22;44854;50.838;4.438;2022-11-09T18:34:58;12.70;99.90
59067;DHT22;44854;50.838;4.438;2022-11-09T18:37:23;12.60;99.90
59067;DHT22;44854;50.838;4.438;2022-11-09T18:39:49;12.60;99.90
59067;DHT22;44854;50.838;4.438;2022-11-09T18:42:14;12.60;99.90
59067;DHT22;44854;50.838;4.438;2022-11-09T18:44:40;12.60;99.90
59067;DHT22;44854;50.838;4.438;2022-11-09T18:47:05;12.70;99.90
59067;DHT22;44854;50.838;4.438;2022-11-09T18:49:34;12.70;99.90
59067;DHT22;44854;50.838;4.438;2022-11-09T18:52:00;12.70;99.90
59067;DHT22;44854;50.838;4.438;2022-11-09T18:54:26;12.60;99.90
59067;DHT22;44854;50.838;4.438;2022-11-09T18:56:51;12.70;99.90
59067;DHT22;44854;50.838;4.438;2022-11-09T18:59:17;12.70;99.90
59067;DHT22;44854;50.838;4.438;2022-11-09T19:01:43;12.60;99.90
59067;DHT22;44854;50.838;4.438;2022-11-09T19:04:10;12.60;99.90
59067;DHT22;44854;50.838;4.438;2022-11-09T19:06:36;12.60;99.90
59067;DHT22;44854;50.838;4.438;2022-11-09T19:09:01;12.60;99.90
59067;DHT22;44854;50.838;4.438;2022-11-09T19:11:46;12.60;99.90
59067;DHT22;44854;50.838;4.438;2022-11-09T19:14:11;12.60;99.90
59067;DHT22;44854;50.838;4.438;2022-11-09T19:16:37;12.60;99.90
59067;DHT22;44854;50.838;4.438;2022-11-09T19:19:03;12.60;99.90
59067;DHT22;44854;50.838;4.438;2022-11-09T19:21:38;12.70;99.90
59067;DHT22;44854;50.838;4.438;2022-11-09T19:24:05;12.70;99.90
59067;DHT22;44854;50.838;4.438;2022-11-09T19:26:33;12.70;99.90
59067;DHT22;44854;50.838;4.438;2022-11-09T19:28:59;12.60;99.90
59067;DHT22;44854;50.838;4.438;2022-11-09T19:31:24;12.60;99.90
59067;DHT22;44854;50.838;4.438;2022-11-09T19:33:50;12.70;99.90
59067;DHT22;44854;50.838;4.438;2022-11-09T19:36:16;12.70;99.90
59067;DHT22;44854;50.838;4.438;2022-11-09T19:38:42;12.70;99.90
59067;DHT22;44854;50.838;4.438;2022-11-09T19:41:09;12.70;99.90
59067;DHT22;44854;50.838;4.438;2022-11-09T19:43:35;12.80;99.90
59067;DHT22;44854;50.838;4.438;2022-11-09T19:46:02;12.80;99.90
59067;DHT22;44854;50.838;4.438;2022-11-09T19:48:28;12.70;99.90
59067;DHT22;44854;50.838;4.438;2022-11-09T19:50:56;12.70;99.90
59067;DHT22;44854;50.838;4.438;2022-11-09T19:53:22;12.60;99.90
59067;DHT22;44854;50.838;4.438;2022-11-09T19:55:48;12.60;99.90
59067;DHT22;44854;50.838;4.438;2022-11-09T19:58:13;12.60;99.90
59067;DHT22;44854;50.838;4.438;2022-11-09T20:00:39;12.60;99.90
59067;DHT22;44854;50.838;4.438;2022-11-09T20:03:05;12.60;99.90
59067;DHT22;44854;50.838;4.438;2022-11-09T20:05:33;12.60;99.90
59067;DHT22;44854;50.838;4.438;2022-11-09T20:08:01;12.60;99.90
59067;DHT22;44854;50.838;4.438;2022-11-09T20:10:26;12.60;99.90
59067;DHT22;44854;50.838;4.438;2022-11-09T20:12:52;12.60;99.90
59067;DHT22;44854;50.838;4.438;2022-11-09T20:15:20;12.60;99.90
59067;DHT22;44854;50.838;4.438;2022-11-09T20:17:46;12.60;99.90
59067;DHT22;44854;50.838;4.438;2022-11-09T20:20:12;12.60;99.90
59067;DHT22;44854;50.838;4.438;2022-11-09T20:22:39;12.60;99.90
59067;DHT22;44854;50.838;4.438;2022-11-09T20:25:05;12.60;99.90
59067;DHT22;44854;50.838;4.438;2022-11-09T20:27:31;12.50;99.90
59067;DHT22;44854;50.838;4.438;2022-11-09T20:29:57;12.60;99.90
59067;DHT22;44854;50.838;4.438;2022-11-09T20:32:22;12.60;99.90
59067;DHT22;44854;50.838;4.438;2022-11-09T20:34:48;12.60;99.90
59067;DHT22;44854;50.838;4.438;2022-11-09T20:37:14;12.60;99.90
59067;DHT22;44854;50.838;4.438;2022-11-09T20:39:41;12.60;99.90
59067;DHT22;44854;50.838;4.438;2022-11-09T20:42:10;12.60;99.90
59067;DHT22;44854;50.838;4.438;2022-11-09T20:44:36;12.50;99.90
59067;DHT22;44854;50.838;4.438;2022-11-09T20:47:01;12.50;99.90
59067;DHT22;44854;50.838;4.438;2022-11-09T20:49:28;12.50;99.90
59067;DHT22;44854;50.838;4.438;2022-11-09T20:51:54;12.50;99.90
59067;DHT22;44854;50.838;4.438;2022-11-09T20:54:19;12.50;99.90
59067;DHT22;44854;50.838;4.438;2022-11-09T20:56:48;12.40;99.90
59067;DHT22;44854;50.838;4.438;2022-11-09T20:59:13;12.50;99.90
59067;DHT22;44854;50.838;4.438;2022-11-09T21:01:39;12.50;99.90
59067;DHT22;44854;50.838;4.438;2022-11-09T21:04:04;12.50;99.90
59067;DHT22;44854;50.838;4.438;2022-11-09T21:06:30;12.40;99.90
59067;DHT22;44854;50.838;4.438;2022-11-09T21:08:57;12.40;99.90
59067;DHT22;44854;50.838;4.438;2022-11-09T21:11:25;12.50;99.90
59067;DHT22;44854;50.838;4.438;2022-11-09T21:13:58;12.60;99.90
59067;DHT22;44854;50.838;4.438;2022-11-09T21:16:24;12.50;99.90
59067;DHT22;44854;50.838;4.438;2022-11-09T21:18:50;12.40;99.90
59067;DHT22;44854;50.838;4.438;2022-11-09T21:21:16;12.40;99.90
59067;DHT22;44854;50.838;4.438;2022-11-09T21:23:42;12.40;99.90
59067;DHT22;44854;50.838;4.438;2022-11-09T21:26:26;12.40;99.90
59067;DHT22;44854;50.838;4.438;2022-11-09T21:29:12;12.30;99.90
59067;DHT22;44854;50.838;4.438;2022-11-09T21:31:56;12.30;99.90
59067;DHT22;44854;50.838;4.438;2022-11-09T21:34:22;12.30;99.90
59067;DHT22;44854;50.838;4.438;2022-11-09T21:36:48;12.40;99.90
59067;DHT22;44854;50.838;4.438;2022-11-09T21:39:13;12.40;99.90
59067;DHT22;44854;50.838;4.438;2022-11-09T21:41:42;12.40;99.90
59067;DHT22;44854;50.838;4.438;2022-11-09T21:44:09;12.30;99.90
59067;DHT22;44854;50.838;4.438;2022-11-09T21:46:35;12.20;99.90
59067;DHT22;44854;50.838;4.438;2022-11-09T21:49:01;12.10;99.90
59067;DHT22;44854;50.838;4.438;2022-11-09T21:51:28;12.10;99.90
59067;DHT22;44854;50.838;4.438;2022-11-09T21:53:54;12.20;99.90
59067;DHT22;44854;50.838;4.438;2022-11-09T21:56:19;12.20;99.90
59067;DHT22;44854;50.838;4.438;2022-11-09T21:58:45;12.20;99.90
59067;DHT22;44854;50.838;4.438;2022-11-09T22:01:11;12.20;99.90
59067;DHT22;44854;50.838;4.438;2022-11-09T22:03:37;12.10;99.90
59067;DHT22;44854;50.838;4.438;2022-11-09T22:06:03;12.10;99.90
59067;DHT22;44854;50.838;4.438;2022-11-09T22:08:29;12.00;99.90
59067;DHT22;44854;50.838;4.438;2022-11-09T22:13:32;12.00;99.90
59067;DHT22;44854;50.838;4.438;2022-11-09T22:16:17;12.10;99.90
59067;DHT22;44854;50.838;4.438;2022-11-09T22:18:43;12.00;99.90
59067;DHT22;44854;50.838;4.438;2022-11-09T22:21:27;12.00;99.90
59067;DHT22;44854;50.838;4.438;2022-11-09T22:23:53;12.00;99.90
59067;DHT22;44854;50.838;4.438;2022-11-09T22:26:18;12.10;99.90
59067;DHT22;44854;50.838;4.438;2022-11-09T22:28:44;12.00;99.90
59067;DHT22;44854;50.838;4.438;2022-11-09T22:31:10;12.10;99.90
59067;DHT22;44854;50.838;4.438;2022-11-09T22:33:36;12.00;99.90
59067;DHT22;44854;50.838;4.438;2022-11-09T22:36:04;12.00;99.90
59067;DHT22;44854;50.838;4.438;2022-11-09T22:38:30;12.00;99.90
59067;DHT22;44854;50.838;4.438;2022-11-09T22:41:04;12.00;99.90
59067;DHT22;44854;50.838;4.438;2022-11-09T22:43:33;12.00;99.90
59067;DHT22;44854;50.838;4.438;2022-11-09T22:46:17;12.00;99.90
59067;DHT22;44854;50.838;4.438;2022-11-09T22:48:43;12.00;99.90
59067;DHT22;44854;50.838;4.438;2022-11-09T22:51:13;11.90;99.90
59067;DHT22;44854;50.838;4.438;2022-11-09T22:53:39;11.90;99.90
59067;DHT22;44854;50.838;4.438;2022-11-09T22:56:05;11.90;99.90
59067;DHT22;44854;50.838;4.438;2022-11-09T22:58:31;11.90;99.90
59067;DHT22;44854;50.838;4.438;2022-11-09T23:01:12;11.90;99.90
59067;DHT22;44854;50.838;4.438;2022-11-09T23:03:38;11.90;99.90
59067;DHT22;44854;50.838;4.438;2022-11-09T23:06:05;11.90;99.90
59067;DHT22;44854;50.838;4.438;2022-11-09T23:08:32;11.90;99.90
59067;DHT22;44854;50.838;4.438;2022-11-09T23:10:59;11.90;99.90
59067;DHT22;44854;50.838;4.438;2022-11-09T23:13:24;11.90;99.90
59067;DHT22;44854;50.838;4.438;2022-11-09T23:15:57;11.90;99.90
59067;DHT22;44854;50.838;4.438;2022-11-09T23:18:23;11.90;99.90
